Hauptseite
METAR-TAF:

METAR-TAF

Flughäfen :

Formosa, Argentinien

Breite: 26-12S, Länge: 058-14W, Höhe: 59 m

Beobachtung

Neuester Wetterbericht von vor 54 Minuten, um 21:00 UTC
Wind 4 kt aus Südwest
Temperatur 33°C
Luftfeuchtigkeit 44%
Luftdruck 1010 hPa
Sichtweite 10 km oder mehr
Aufgelockert bewölkt in der Höhe von 2500 ft

METAR: SARF 252100Z 23004KT 9999 SCT025 33/19 Q1010

Zeit: 18:54 (21:54 UTC)

Prognose

Neuester Wetterbericht von vor 4 Stunden und 54 Minuten, um 17:00 UTC
Gültige Prognose vom 25 um 18 UTC bis 26 um 18 UTC
Wind 5 kt aus Süd/Südost
Sichtweite 10 km oder mehr
Leicht bewölkt in der Höhe von 3000 ft

TAF: SARF 251700Z 2518/2618 16005KT 9999 FEW030 TX34/2618Z TN21/2609Z

Wetterbeobachtungen und Prognosen von mehr als 4000 Flughäfen (METAR und TAF Bericht).

Die verfügbaren Stationen werden durch gelbe und rote Markierungen auf der Karte dargestellt.

Führen Sie die Maus auf sie, um den Namen der Station zu sehen.

Darauf klicken, um die Beobachtung von Wetterbeobachtungen und Prognosen zu sehen.

Um die Karte zu ändern : klicken Sie auf den grünen Tasten mit einem schwarzen Kreuz Zum Vergrößern, auf den grünen Button mit einem Gedankenstrich zu verkleinern, oder auf die grünen Pfeile für benachbarte Karten.


METAR-TAF: